createdAt,value
2019-03-18T09:34:56.985Z,22.6
2019-03-18T09:45:00.514Z,22.9
2019-03-18T09:55:03.981Z,23
2019-03-18T10:05:07.510Z,23.1
2019-03-18T11:54:04.251Z,23
2019-03-18T12:04:07.764Z,19.9
2019-03-18T12:14:11.227Z,22.6
2019-03-18T12:24:14.979Z,22.9
2019-03-18T12:34:18.489Z,23.1
2019-03-18T12:44:22.021Z,23.2
2019-03-18T12:54:26.039Z,23.2
2019-03-18T13:04:29.505Z,23.2
2019-03-18T13:14:33.041Z,23.3
2019-03-18T13:24:36.543Z,23.4
2019-03-18T13:34:40.040Z,23.4
2019-03-18T13:44:43.558Z,23.4
2019-03-18T13:54:47.070Z,23.3
2019-03-18T14:04:50.520Z,23.2
2019-03-18T14:14:54.028Z,23.2
2019-03-18T14:24:57.538Z,23.2
2019-03-18T14:35:01.047Z,23.3
2019-03-18T14:45:04.566Z,23.2
2019-03-18T14:55:10.138Z,23.2
2019-03-18T16:32:58.242Z,23.2
2019-03-18T16:43:01.719Z,22.3
2019-03-18T16:53:05.235Z,22.4
2019-03-18T17:03:08.749Z,22.4
2019-03-18T17:13:12.298Z,22.5
2019-03-18T17:23:15.800Z,22.3
2019-03-18T17:33:19.326Z,22.2
2019-03-18T17:43:22.788Z,22.1
2019-03-18T17:53:26.304Z,22
2019-03-18T18:03:29.825Z,22.1
2019-03-18T18:13:33.334Z,22.1
2019-03-18T18:23:36.829Z,22
2019-03-18T18:33:40.324Z,21.9
2019-03-18T18:43:43.785Z,21.9
2019-03-18T18:53:47.317Z,21.9
2019-03-18T19:03:50.827Z,22
2019-03-18T19:13:54.326Z,22
2019-03-18T19:23:57.852Z,21.9
2019-03-18T19:34:01.351Z,21.9
2019-03-18T19:44:04.817Z,21.8
2019-03-18T19:54:08.343Z,21.8
2019-03-18T20:04:11.841Z,22
2019-03-18T20:14:15.353Z,22
2019-03-18T20:24:18.850Z,21.9
2019-03-18T20:34:22.356Z,21.9
2019-03-18T20:44:25.823Z,21.8
2019-03-18T20:54:29.362Z,21.8
2019-03-18T21:04:32.876Z,21.9
2019-03-18T21:14:36.385Z,22
2019-03-18T21:24:39.924Z,21.9
2019-03-18T21:34:43.462Z,21.9
2019-03-18T21:44:46.957Z,21.7
2019-03-18T21:54:50.473Z,21.7
2019-03-18T22:04:53.975Z,21.7
2019-03-18T22:14:57.489Z,21.8
2019-03-18T22:25:01.020Z,21.7
2019-03-18T22:35:04.539Z,21.7
2019-03-18T22:45:08.035Z,21.7
2019-03-18T22:55:11.562Z,21.7
2019-03-18T23:05:15.081Z,21.7
2019-03-18T23:15:18.586Z,21.8
2019-03-18T23:25:22.102Z,21.8
2019-03-18T23:35:25.624Z,21.8
2019-03-18T23:45:29.109Z,21.7
2019-03-18T23:55:32.636Z,21.7
